Portada
METAR-TAF:

METAR-TAF

Aeroports :

Nagpur, Índia

latitud: 21-06N, longitud: 079-03E, altitud: 308 m

Observació

L'informe es va fer fa 39 minuts, a les 15:30 UTC
Vent 2 kt del Nord
Temperatura 27°C
Humitat 94%
Pressió 1004 hPa
Visibilitat: 3000 m
Núvols disperses a una alçada de 1800 ft
Cel ennuvolat a una alçada de 9000 ft
calitja

METAR: VANP 061530Z 35002KT 3000 HZ SCT018 BKN090 27/26 Q1004 NOSIG

Hora: 21:39 (16:09 UTC)

Pronòstic

L'informe es va fer fa 2 hores i 9 minuts, a les 14:00 UTC
Pronòstic vàlid del 06 a les 15 UTC al 06 a les 24 UTC
Vent 6 kt del Oest/Nord-Oest
Visibilitat: 3000 m
Núvols disperses a una alçada de 1500 ft
Cel ennuvolat a una alçada de 8000 ft
calitja, pluja
Evolucionant progressivament
l' 06 a les 18 UTC al 06 a les 20 UTC
Vent 5 kt del Sud-Oest
Visibilitat: 2000 m
Núvols disperses a una alçada de 1500 ft
Cel ennuvolat a una alçada de 9000 ft

TAF: VANP 061400Z 0615/0624 29006KT 3000 HZ -RA SCT015 BKN080 BECMG 0618/0620 23005KT 2000 -RA/HZ SCT015 BKN090

Observacions i pronòstics meteorològics de més de 4000 aeroports (METAR i TAF).

Les estacions disponibles són els punts grocs i vermells al mapa.

Posi el ratolí al punt desitjat per veure el nom de l'estació.

Feu clic per veure les observacions i els pronòstics meteorològics.

Per canviar el mapa: feu clic els botons verds amb una creu de color negre per apropar; al botó verd amb un guió per allunyar la imatge; o en les fletxes verdes per a mapes adjacents.


METAR-TAF: